Urb Batey, Puerto Rico
Current Conditions -  °F | °C
As of 1:53 PM on Thursday 30 Oct 2014 (Local Time) from TJNR Reporting Station
Broken Clouds Broken Clouds  
Wind Chill: 85°   Ceiling: 3900
Heat Index: 93°   Visibility: 10mi
Dew Point: 75°   Wind: 9mph
Humidity: 72%   Direction: 190°S
Pressure: 29.81"   Gusts: NA
Location:  18.3304°N, 65.6573°W
Report Text: TJNR 301753Z AUTO 19008KT 10SM FEW029 BKN039 29/24 A2981 RMK AO2 SLP096 60029 T02940239 58021 $
Loading
Personal Weather Stations






























Interactive Weather Map
Tropical Storm Tracking
New forecast layout! Learn more

10-Day Weather Forecast

Advertisements
Track Severe Weather on mobile